Time;durP1;ratioP1;P1;durP2;ratioP2;P2;SDS_P1;SDS_P2;PMS_P1;PMS_P2;Temp;Humidity;BMP_temperature;BMP_pressure;BME280_temperature;BME280_humidity;BME280_pressure;Samples;Min_cycle;Max_cycle;Signal;HPM_P1;HPM_P2
2023/06/05 00:02:06;;;;;;;31.45;9.43;;;;;;;18.43;60.53;100746.28;4996174;28;20022;-47
2023/06/05 00:04:32;;;;;;;26.40;9.07;;;;;;;18.08;59.95;100747.63;4996393;28;20033;-47
2023/06/05 00:06:58;;;;;;;32.45;8.73;;;;;;;17.96;61.21;100744.28;4996067;28;20026;-50
2023/06/05 00:09:24;;;;;;;21.98;7.18;;;;;;;18.06;61.33;100741.66;4996249;28;20033;-48
2023/06/05 00:11:51;;;;;;;25.50;7.75;;;;;;;17.74;60.24;100736.22;4995134;28;20030;-47
2023/06/05 00:14:17;;;;;;;24.02;7.60;;;;;;;17.88;61.06;100742.88;4996213;28;20030;-47
2023/06/05 00:16:43;;;;;;;28.15;7.82;;;;;;;17.72;61.09;100738.38;4995987;28;20033;-51
2023/06/05 00:19:10;;;;;;;33.35;9.15;;;;;;;17.51;62.07;100737.31;4995784;28;20386;-46
2023/06/05 00:21:36;;;;;;;31.95;9.18;;;;;;;16.98;63.21;100738.03;4995778;28;20510;-50
2023/06/05 00:24:02;;;;;;;31.50;9.43;;;;;;;17.03;64.84;100732.69;4995672;28;20025;-50
2023/06/05 00:26:28;;;;;;;30.52;9.27;;;;;;;17.03;65.65;100736.22;4995906;28;20030;-49
2023/06/05 00:28:55;;;;;;;32.03;9.02;;;;;;;16.93;65.10;100729.84;4995545;28;20407;-52
2023/06/05 00:31:21;;;;;;;34.30;9.23;;;;;;;16.88;64.79;100730.63;4995614;28;20030;-56
2023/06/05 00:33:48;;;;;;;25.85;8.05;;;;;;;16.85;64.22;100726.53;4995603;28;20022;-55
2023/06/05 00:36:15;;;;;;;36.42;8.55;;;;;;;16.94;64.47;100726.09;4995504;28;20030;-47
2023/06/05 00:38:41;;;;;;;28.40;8.38;;;;;;;16.78;64.75;100727.78;4995166;28;20047;-48
2023/06/05 00:41:07;;;;;;;35.70;9.02;;;;;;;16.60;65.62;100713.47;4995454;28;20435;-47
2023/06/05 00:43:33;;;;;;;37.80;9.77;;;;;;;16.62;65.18;100713.19;4995550;28;20019;-47
2023/06/05 00:46:03;;;;;;;35.90;9.60;;;;;;;16.36;65.73;100709.31;4995522;28;20034;-50
2023/06/05 00:48:30;;;;;;;32.90;9.80;;;;;;;16.66;66.43;100713.50;4995398;28;20022;-48
2023/06/05 00:50:57;;;;;;;43.85;9.85;;;;;;;16.63;65.97;100709.44;4995214;28;20026;-47
2023/06/05 00:53:24;;;;;;;30.13;9.68;;;;;;;16.64;66.42;100708.34;4995335;28;20027;-50
2023/06/05 00:55:51;;;;;;;29.20;8.13;;;;;;;16.44;66.79;100711.59;4995258;28;20093;-48
2023/06/05 00:58:18;;;;;;;28.98;8.95;;;;;;;16.54;66.73;100711.72;4995075;28;20023;-48
2023/06/05 01:00:45;;;;;;;32.05;9.60;;;;;;;16.41;66.61;100712.09;4995084;28;20034;-48
2023/06/05 01:03:12;;;;;;;31.75;9.75;;;;;;;16.63;67.06;100704.84;4994969;28;20038;-47
2023/06/05 01:05:39;;;;;;;42.45;11.13;;;;;;;16.37;67.43;100711.75;4995060;28;20026;-46
2023/06/05 01:08:09;;;;;;;38.22;10.02;;;;;;;16.37;67.39;100705.53;4994896;28;20026;-46
2023/06/05 01:10:35;;;;;;;32.78;9.00;;;;;;;16.42;67.38;100708.31;4995519;28;20019;-48
2023/06/05 01:13:01;;;;;;;42.40;10.70;;;;;;;16.27;67.82;100708.91;4994733;28;20037;-51
2023/06/05 01:15:30;;;;;;;31.35;9.80;;;;;;;16.30;67.11;100704.91;4994645;28;20046;-49
2023/06/05 01:18:00;;;;;;;47.15;10.65;;;;;;;16.07;67.67;100711.28;4994723;28;20026;-51
2023/06/05 01:20:39;;;;;;;42.70;10.00;;;;;;;16.00;68.01;100702.53;4994536;28;20451;-49
2023/06/05 01:23:07;;;;;;;42.97;10.88;;;;;;;15.83;69.53;100695.25;4994294;28;20022;-50
2023/06/05 01:25:36;;;;;;;29.40;9.43;;;;;;;15.59;69.51;100705.31;4994444;28;20045;-50
2023/06/05 01:28:16;;;;;;;29.63;9.25;;;;;;;15.77;69.20;100711.59;4995016;28;20027;-47
2023/06/05 01:31:13;;;;;;;31.45;9.68;;;;;;;15.77;69.25;100700.81;4994663;28;20029;-47
2023/06/05 01:33:56;;;;;;;40.88;10.70;;;;;;;15.52;69.83;100699.25;4994573;28;20054;-47
2023/06/05 01:36:23;;;;;;;36.03;10.15;;;;;;;15.73;69.84;100705.06;4994232;28;20022;-48
2023/06/05 01:38:50;;;;;;;39.92;10.30;;;;;;;15.74;69.48;100695.88;4994042;28;20053;-47
2023/06/05 01:41:17;;;;;;;39.55;10.80;;;;;;;15.61;70.34;100694.28;4994465;28;20042;-47
2023/06/05 01:43:47;;;;;;;33.47;8.65;;;;;;;15.71;69.80;100702.59;4994264;28;20026;-49
2023/06/05 01:46:17;;;;;;;42.85;9.88;;;;;;;15.78;69.05;100703.25;4994112;28;20387;-49
2023/06/05 01:48:45;;;;;;;30.95;10.02;;;;;;;15.67;68.98;100700.63;4994309;28;20522;-47
2023/06/05 01:51:11;;;;;;;45.38;10.88;;;;;;;15.44;70.37;100702.34;4994895;28;20229;-49
2023/06/05 01:53:38;;;;;;;37.75;9.73;;;;;;;15.63;70.56;100700.28;4993947;28;20030;-49
2023/06/05 01:56:08;;;;;;;42.88;10.80;;;;;;;15.56;70.72;100700.41;4994080;28;20026;-51
2023/06/05 01:58:35;;;;;;;47.00;11.38;;;;;;;15.62;70.60;100698.63;5008990;28;20430;-49
2023/06/05 02:01:02;;;;;;;44.53;11.38;;;;;;;15.62;70.07;100689.72;4993725;28;20029;-48
2023/06/05 02:03:29;;;;;;;40.55;10.27;;;;;;;15.72;69.60;100692.63;4994137;28;20037;-51
2023/06/05 02:05:55;;;;;;;38.47;9.98;;;;;;;15.64;69.35;100695.72;4993782;28;20022;-47
2023/06/05 02:08:22;;;;;;;37.83;10.60;;;;;;;15.94;68.71;100711.63;4993872;28;20054;-50
2023/06/05 02:10:52;;;;;;;35.30;9.65;;;;;;;15.63;69.68;100700.28;4993942;28;20030;-48
2023/06/05 02:13:19;;;;;;;32.85;9.60;;;;;;;15.80;69.40;100705.72;4994221;28;20030;-49
2023/06/05 02:15:46;;;;;;;46.17;10.88;;;;;;;15.63;69.10;100703.00;4993615;28;20096;-51
2023/06/05 02:18:13;;;;;;;47.92;11.07;;;;;;;15.76;69.11;100705.38;4993710;28;20422;-48
2023/06/05 02:20:41;;;;;;;35.58;11.38;;;;;;;15.82;69.30;100703.56;4993691;28;20025;-51
2023/06/05 02:23:07;;;;;;;29.60;9.10;;;;;;;15.56;69.44;100705.00;4993868;28;20034;-49
2023/06/05 02:25:33;;;;;;;32.42;9.60;;;;;;;15.51;69.85;100711.09;4993408;28;20037;-47
2023/06/05 02:27:59;;;;;;;52.67;12.05;;;;;;;15.47;69.65;100719.91;4993772;28;20031;-50
2023/06/05 02:30:26;;;;;;;42.38;10.93;;;;;;;15.51;69.94;100726.47;4993750;28;20085;-50
2023/06/05 02:33:00;;;;;;;35.83;10.70;;;;;;;15.46;69.91;100716.41;4993200;28;20495;-49
2023/06/05 02:35:27;;;;;;;38.10;10.88;;;;;;;15.47;70.33;100718.03;4992861;28;20061;-51
2023/06/05 02:37:53;;;;;;;41.45;10.52;;;;;;;15.39;70.52;100715.75;4993211;28;20042;-51
2023/06/05 02:40:19;;;;;;;41.83;12.63;;;;;;;15.35;71.12;100719.97;4993537;28;20038;-46
2023/06/05 02:42:45;;;;;;;35.22;11.57;;;;;;;15.34;71.39;100725.63;4993711;28;20022;-47
2023/06/05 02:45:12;;;;;;;47.33;11.68;;;;;;;15.27;71.02;100715.78;4993431;28;20038;-46
2023/06/05 02:47:38;;;;;;;50.80;12.20;;;;;;;14.96;72.37;100714.34;4993347;28;20050;-47
2023/06/05 02:50:06;;;;;;;47.35;12.65;;;;;;;15.13;72.04;100710.91;4993456;28;20046;-52
2023/06/05 02:52:34;;;;;;;41.08;13.57;;;;;;;14.81;73.39;100708.63;4993667;28;20027;-48
2023/06/05 02:55:02;;;;;;;43.35;11.95;;;;;;;14.72;72.96;100720.84;4993285;28;20026;-48
2023/06/05 02:57:28;;;;;;;42.97;12.57;;;;;;;14.38;74.21;100723.28;4993277;28;20113;-50
2023/06/05 02:59:55;;;;;;;46.08;11.95;;;;;;;14.31;75.13;100719.06;4993323;28;20101;-50
2023/06/05 03:02:22;;;;;;;48.75;12.57;;;;;;;14.14;76.05;100735.88;4993444;28;20026;-48
2023/06/05 03:04:53;;;;;;;41.65;12.05;;;;;;;13.96;77.24;100728.72;4993325;28;20073;-49
2023/06/05 03:07:19;;;;;;;51.25;13.55;;;;;;;13.98;77.44;100737.38;4993072;28;20026;-48
2023/06/05 03:09:46;;;;;;;51.78;13.18;;;;;;;13.70;78.58;100739.88;4992944;28;20388;-47
2023/06/05 03:12:12;;;;;;;53.65;13.45;;;;;;;13.50;79.27;100740.16;4993641;28;20034;-48
2023/06/05 03:14:39;;;;;;;44.65;14.05;;;;;;;13.58;79.39;100739.00;4993179;28;20030;-49
2023/06/05 03:17:05;;;;;;;49.72;13.52;;;;;;;13.51;79.70;100741.81;4993078;28;20027;-50
2023/06/05 03:19:31;;;;;;;51.50;13.60;;;;;;;13.22;81.35;100738.06;4992891;28;20118;-51
2023/06/05 03:21:58;;;;;;;51.83;13.68;;;;;;;13.27;81.37;100735.50;4992946;28;20415;-51
2023/06/05 03:24:24;;;;;;;56.92;14.30;;;;;;;13.27;81.28;100730.13;4992980;28;20471;-51
2023/06/05 03:26:50;;;;;;;60.20;15.18;;;;;;;13.32;81.59;100741.00;5008304;28;20496;-50
2023/06/05 03:29:17;;;;;;;52.85;13.20;;;;;;;13.18;81.75;100739.50;4992967;28;20073;-50
2023/06/05 03:31:43;;;;;;;54.97;13.35;;;;;;;13.10;82.21;100739.81;4993015;28;20459;-51
2023/06/05 03:34:10;;;;;;;53.17;14.63;;;;;;;13.13;82.19;100744.75;4992966;28;20034;-50
2023/06/05 03:36:39;;;;;;;58.60;15.13;;;;;;;12.86;83.80;100736.16;4992650;28;20022;-51
2023/06/05 03:39:06;;;;;;;43.67;13.27;;;;;;;12.93;84.06;100739.56;4993356;28;20034;-52
2023/06/05 03:41:32;;;;;;;53.78;13.90;;;;;;;13.08;83.55;100734.66;4992760;28;20034;-51
2023/06/05 03:43:59;;;;;;;57.28;14.50;;;;;;;12.82;83.79;100730.41;4992799;28;20444;-50
2023/06/05 03:46:29;;;;;;;62.85;15.38;;;;;;;12.59;85.35;100739.09;4994020;28;20498;-50
2023/06/05 03:48:59;;;;;;;50.33;13.52;;;;;;;12.65;85.43;100745.47;4996539;28;20022;-49
2023/06/05 03:51:29;;;;;;;55.90;15.27;;;;;;;12.75;84.88;100753.81;4996435;28;20033;-49
2023/06/05 03:53:59;;;;;;;59.90;14.18;;;;;;;12.70;85.47;100740.25;4996382;28;20026;-50
2023/06/05 03:56:33;;;;;;;56.05;14.73;;;;;;;12.75;85.12;100743.09;4996191;28;20030;-52
2023/06/05 03:59:25;;;;;;;52.47;16.17;;;;;;;12.81;84.62;100736.81;4996211;28;20046;-50
2023/06/05 04:01:51;;;;;;;51.42;14.13;;;;;;;12.66;85.40;100739.88;4996278;28;20076;-49
2023/06/05 04:04:17;;;;;;;58.58;14.13;;;;;;;12.58;86.36;100748.22;4996203;28;20360;-48
2023/06/05 04:06:44;;;;;;;55.00;14.63;;;;;;;12.62;86.25;100746.72;4996372;28;20033;-48
2023/06/05 04:09:13;;;;;;;60.58;13.48;;;;;;;12.66;85.64;100744.44;4996006;28;20467;-52
2023/06/05 04:11:44;;;;;;;55.70;14.80;;;;;;;12.65;86.10;100745.47;4996450;28;20034;-49
2023/06/05 04:14:11;;;;;;;50.95;15.07;;;;;;;12.48;86.69;100739.84;4995640;28;20046;-49
2023/06/05 04:16:43;;;;;;;51.42;13.98;;;;;;;12.58;86.84;100750.06;4995913;28;20474;-48
2023/06/05 04:19:11;;;;;;;57.83;15.18;;;;;;;12.48;87.19;100764.00;4995854;28;20048;-48
2023/06/05 04:21:38;;;;;;;53.63;16.08;;;;;;;12.49;86.87;100765.63;4995776;28;20029;-49
2023/06/05 04:24:12;;;;;;;57.42;16.13;;;;;;;12.51;86.86;100768.13;4994606;28;20364;-47
2023/06/05 04:26:43;;;;;;;63.17;15.85;;;;;;;12.57;86.66;100773.41;4995588;28;20026;-46
2023/06/05 04:29:16;;;;;;;65.72;16.42;;;;;;;12.51;86.90;100771.63;4995851;28;20038;-46
2023/06/05 04:31:45;;;;;;;61.10;15.93;;;;;;;12.47;86.71;100770.41;4996449;28;20454;-47
2023/06/05 04:34:11;;;;;;;54.25;15.07;;;;;;;12.36;86.63;100777.31;4995625;28;20088;-48
2023/06/05 04:36:38;;;;;;;38.35;13.10;;;;;;;12.41;86.54;100785.53;4995371;28;20027;-47
2023/06/05 04:39:07;;;;;;;65.18;16.13;;;;;;;12.26;87.06;100786.91;4995411;28;20049;-47
2023/06/05 04:41:36;;;;;;;58.10;14.98;;;;;;;12.36;86.96;100790.72;4995441;28;20474;-48
2023/06/05 04:44:02;;;;;;;48.42;15.20;;;;;;;12.27;87.88;100792.06;4995180;28;20034;-50
2023/06/05 04:46:28;;;;;;;55.17;14.70;;;;;;;12.39;87.92;100798.38;4995343;28;20041;-51
2023/06/05 04:48:57;;;;;;;43.88;14.13;;;;;;;12.46;87.65;100802.84;4995186;28;20417;-47
2023/06/05 04:51:24;;;;;;;62.15;15.45;;;;;;;12.31;88.25;100805.84;4995128;28;20026;-47
2023/06/05 04:53:52;;;;;;;61.92;15.70;;;;;;;12.26;88.32;100809.19;4995094;28;20030;-47
2023/06/05 04:56:22;;;;;;;52.88;15.63;;;;;;;12.32;87.94;100813.69;4995588;28;20022;-47
2023/06/05 04:58:51;;;;;;;62.13;16.15;;;;;;;12.30;87.76;100815.75;4995000;28;20026;-47
2023/06/05 05:01:17;;;;;;;46.60;13.82;;;;;;;12.31;87.65;100819.28;4995037;28;20054;-46
2023/06/05 05:03:45;;;;;;;59.70;14.80;;;;;;;12.18;88.14;100822.06;4994897;28;20112;-46
2023/06/05 05:06:16;;;;;;;56.10;16.17;;;;;;;12.33;87.23;100819.91;4994910;28;20022;-48
2023/06/05 05:08:44;;;;;;;53.92;15.82;;;;;;;12.17;87.70;100820.41;4995034;28;20366;-47
2023/06/05 05:11:11;;;;;;;50.20;15.32;;;;;;;12.24;87.87;100816.63;4994901;28;20022;-49
2023/06/05 05:13:38;;;;;;;50.25;14.32;;;;;;;12.21;87.84;100817.06;4994792;28;20494;-49
2023/06/05 05:16:04;;;;;;;51.08;13.45;;;;;;;12.12;88.04;100813.00;4994875;28;20442;-50
2023/06/05 05:18:30;;;;;;;44.47;13.48;;;;;;;12.13;88.01;100811.97;4994990;28;20401;-52
2023/06/05 05:20:57;;;;;;;48.92;13.32;;;;;;;12.15;87.94;100812.56;4994874;28;20022;-51
2023/06/05 05:23:23;;;;;;;53.78;13.70;;;;;;;12.08;88.35;100811.78;4994707;28;20422;-52
2023/06/05 05:25:49;;;;;;;64.43;14.38;;;;;;;12.14;88.27;100808.25;4994830;28;20028;-49
2023/06/05 05:28:15;;;;;;;50.30;14.80;;;;;;;12.11;88.49;100808.69;4994525;28;20025;-47
2023/06/05 05:30:42;;;;;;;55.83;15.43;;;;;;;12.11;88.48;100798.78;4995228;28;20524;-48
2023/06/05 05:33:08;;;;;;;69.18;15.68;;;;;;;12.11;88.50;100804.16;4994457;28;20022;-47
2023/06/05 05:35:34;;;;;;;54.75;16.15;;;;;;;12.07;88.71;100807.47;4994389;28;20030;-47
2023/06/05 05:38:01;;;;;;;64.35;16.02;;;;;;;12.00;88.93;100804.03;4994314;28;20046;-48
2023/06/05 05:40:27;;;;;;;52.53;13.95;;;;;;;12.16;88.09;100803.50;4994293;28;20022;-47
2023/06/05 05:42:53;;;;;;;43.53;13.40;;;;;;;12.15;87.78;100783.88;4994650;28;20448;-48
2023/06/05 05:45:19;;;;;;;59.17;14.98;;;;;;;12.15;88.08;100785.72;4994230;28;20026;-47
2023/06/05 05:47:46;;;;;;;51.47;14.10;;;;;;;12.19;88.10;100781.59;4994107;28;20369;-49
2023/06/05 05:50:12;;;;;;;51.88;14.13;;;;;;;12.18;87.93;100776.44;4994180;28;20027;-47
2023/06/05 05:52:38;;;;;;;51.05;12.93;;;;;;;12.16;88.10;100774.00;4994184;28;20084;-51
2023/06/05 05:55:05;;;;;;;52.45;13.63;;;;;;;12.21;87.86;100770.63;4994039;28;20026;-51
2023/06/05 05:57:31;;;;;;;46.33;14.32;;;;;;;12.12;87.79;100764.72;4994035;28;20034;-48
2023/06/05 05:59:58;;;;;;;47.88;14.00;;;;;;;12.16;88.25;100763.25;4994016;28;20022;-47
2023/06/05 06:02:24;;;;;;;58.60;14.00;;;;;;;12.09;88.64;100770.50;4993786;28;20433;-48
2023/06/05 06:04:51;;;;;;;48.95;13.35;;;;;;;12.06;88.37;100765.59;4994061;28;20030;-47
2023/06/05 06:07:17;;;;;;;48.13;12.60;;;;;;;12.03;88.72;100760.66;4993817;28;20113;-47
2023/06/05 06:09:44;;;;;;;59.25;14.55;;;;;;;11.94;89.63;100762.78;4992938;28;20033;-47
2023/06/05 06:12:11;;;;;;;65.82;15.82;;;;;;;12.02;89.33;100756.31;4993752;28;20030;-47
2023/06/05 06:14:37;;;;;;;61.47;13.90;;;;;;;12.04;89.04;100754.25;4993847;28;20077;-47
2023/06/05 06:17:05;;;;;;;51.83;13.98;;;;;;;12.02;88.66;100756.31;4993820;28;20407;-53
2023/06/05 06:19:32;;;;;;;52.83;14.88;;;;;;;11.91;88.96;100757.03;4993664;28;20083;-51
2023/06/05 06:21:59;;;;;;;47.55;14.30;;;;;;;11.93;89.29;100760.31;4993617;28;20467;-50
2023/06/05 06:24:26;;;;;;;49.60;13.63;;;;;;;11.96;89.55;100765.25;4993674;28;20085;-48
2023/06/05 06:26:53;;;;;;;53.28;14.80;;;;;;;12.01;89.64;100762.75;4993556;28;20455;-47
2023/06/05 06:29:23;;;;;;;54.40;13.95;;;;;;;12.13;88.80;100767.19;4993537;28;20065;-48
2023/06/05 06:31:50;;;;;;;49.97;13.85;;;;;;;12.03;88.94;100763.34;4993477;28;20057;-46
2023/06/05 06:34:17;;;;;;;52.95;13.77;;;;;;;11.97;88.82;100765.03;4993790;28;20607;-49
2023/06/05 06:36:44;;;;;;;50.90;14.10;;;;;;;11.93;89.43;100760.31;4993458;28;20041;-47
2023/06/05 06:39:11;;;;;;;56.00;14.63;;;;;;;11.94;89.67;100760.09;4993921;28;20050;-47
2023/06/05 06:41:37;;;;;;;48.20;13.43;;;;;;;12.05;89.47;100763.97;4993132;28;20483;-48
2023/06/05 06:44:04;;;;;;;54.72;14.27;;;;;;;12.01;89.84;100771.59;4992746;28;20026;-47
2023/06/05 06:46:31;;;;;;;54.28;14.10;;;;;;;11.93;90.66;100771.84;4992633;28;20030;-47
2023/06/05 06:48:58;;;;;;;64.78;15.15;;;;;;;11.99;90.31;100775.53;4993504;28;20026;-46
2023/06/05 06:51:24;;;;;;;54.85;14.15;;;;;;;12.11;89.64;100776.50;4993032;28;20046;-47
2023/06/05 06:53:51;;;;;;;54.25;14.25;;;;;;;12.12;89.49;100762.03;4993000;28;20038;-49
2023/06/05 06:56:17;;;;;;;48.63;13.23;;;;;;;12.09;88.81;100765.13;4993350;28;20089;-48
2023/06/05 06:58:45;;;;;;;61.83;15.20;;;;;;;12.02;89.78;100764.38;4993176;28;20027;-47
2023/06/05 07:01:12;;;;;;;63.25;15.73;;;;;;;12.08;89.68;100761.63;4993607;28;20092;-48
2023/06/05 07:03:40;;;;;;;50.65;14.77;;;;;;;12.11;89.48;100755.84;4993840;28;20510;-47
2023/06/05 07:06:09;;;;;;;56.50;14.43;;;;;;;12.02;89.98;100765.19;5007811;28;20097;-46
2023/06/05 07:08:35;;;;;;;58.42;14.35;;;;;;;12.10;89.75;100761.41;4993010;28;20031;-47
2023/06/05 07:11:01;;;;;;;56.85;14.52;;;;;;;12.01;90.29;100754.69;4992856;28;20061;-50
2023/06/05 07:13:27;;;;;;;51.97;14.07;;;;;;;11.99;90.43;100765.63;4993119;28;20022;-47
2023/06/05 07:15:54;;;;;;;50.85;14.20;;;;;;;11.99;90.54;100756.75;4993267;28;20479;-48
2023/06/05 07:18:20;;;;;;;52.35;15.63;;;;;;;11.98;90.79;100758.63;4993007;28;20023;-48
2023/06/05 07:20:46;;;;;;;46.28;13.75;;;;;;;12.01;90.96;100762.75;4993395;28;20105;-49
2023/06/05 07:23:14;;;;;;;60.15;14.55;;;;;;;11.92;90.88;100759.47;4996984;28;20493;-48
2023/06/05 07:25:41;;;;;;;55.42;14.02;;;;;;;11.93;91.19;100754.94;4996692;28;20097;-50
2023/06/05 07:28:11;;;;;;;63.38;15.57;;;;;;;11.97;91.02;100762.34;4996679;28;20051;-50
2023/06/05 07:30:37;;;;;;;56.65;15.27;;;;;;;11.85;91.13;100748.81;4996993;28;20356;-48
2023/06/05 07:33:04;;;;;;;49.08;13.55;;;;;;;11.89;90.61;100755.38;4996652;28;20038;-50
2023/06/05 07:35:30;;;;;;;49.30;14.93;;;;;;;11.84;90.84;100757.91;4996782;28;20022;-51
2023/06/05 07:37:56;;;;;;;62.38;14.15;;;;;;;11.86;90.81;100758.50;4996550;28;20081;-49
2023/06/05 07:40:22;;;;;;;57.13;14.55;;;;;;;11.83;91.65;100764.31;4996592;28;20030;-51
2023/06/05 07:42:49;;;;;;;55.20;13.70;;;;;;;11.85;92.06;100770.25;4996442;28;20494;-51
2023/06/05 07:45:15;;;;;;;47.88;13.63;;;;;;;11.90;91.45;100774.97;4996576;28;20034;-48
2023/06/05 07:47:42;;;;;;;55.25;14.45;;;;;;;11.86;91.55;100761.16;4996435;28;20026;-50
2023/06/05 07:50:08;;;;;;;48.30;14.32;;;;;;;11.98;91.21;100773.88;4996431;28;20037;-50
2023/06/05 07:52:36;;;;;;;50.25;12.63;;;;;;;11.97;91.07;100766.88;4996363;28;20058;-47
2023/06/05 07:55:04;;;;;;;54.95;13.25;;;;;;;11.94;90.93;100767.31;4996342;28;20030;-50
2023/06/05 07:57:30;;;;;;;49.08;13.00;;;;;;;11.95;91.26;100763.59;4996258;28;20153;-47
2023/06/05 07:59:56;;;;;;;46.42;12.57;;;;;;;11.96;90.48;100759.88;4996074;28;20026;-51
2023/06/05 08:02:23;;;;;;;48.15;12.57;;;;;;;12.04;89.97;100757.75;4995816;28;20121;-51
2023/06/05 08:04:49;;;;;;;41.03;12.40;;;;;;;12.06;90.31;100765.59;4995884;28;20030;-51
2023/06/05 08:07:15;;;;;;;40.13;14.10;;;;;;;12.11;90.50;100763.09;4995803;28;20046;-50
2023/06/05 08:09:42;;;;;;;49.28;13.07;;;;;;;12.15;90.73;100766.94;4996211;28;20022;-50
2023/06/05 08:12:08;;;;;;;50.75;14.02;;;;;;;12.21;90.01;100763.38;4996358;28;20133;-49
2023/06/05 08:14:35;;;;;;;52.17;13.75;;;;;;;12.28;89.73;100758.81;4995837;28;20021;-49
2023/06/05 08:17:01;;;;;;;56.00;14.10;;;;;;;12.19;90.23;100760.13;4996207;28;20022;-50
2023/06/05 08:19:27;;;;;;;54.67;13.15;;;;;;;12.37;89.69;100745.91;4995965;28;20033;-48
2023/06/05 08:21:54;;;;;;;49.75;12.90;;;;;;;12.44;88.94;100744.03;4995830;28;20026;-51
2023/06/05 08:24:21;;;;;;;55.03;13.82;;;;;;;12.50;87.85;100742.31;4995717;28;20030;-48
2023/06/05 08:26:47;;;;;;;47.25;12.05;;;;;;;12.55;87.83;100759.41;4995721;28;20022;-48
2023/06/05 08:29:13;;;;;;;43.33;11.82;;;;;;;12.62;87.54;100748.59;4995568;28;20168;-52
2023/06/05 08:31:40;;;;;;;48.45;11.13;;;;;;;12.60;87.54;100746.16;4995780;28;20114;-50
2023/06/05 08:34:06;;;;;;;44.75;12.13;;;;;;;12.68;87.06;100740.47;4995098;28;20109;-52
2023/06/05 08:36:32;;;;;;;49.25;13.23;;;;;;;12.65;87.34;100732.03;4995542;28;20203;-51
2023/06/05 08:38:59;;;;;;;40.95;12.00;;;;;;;12.65;87.06;100726.66;4995289;28;20088;-51
2023/06/05 08:41:26;;;;;;;54.72;12.02;;;;;;;12.78;86.24;100726.53;4995536;28;20065;-49
2023/06/05 08:43:52;;;;;;;50.17;12.35;;;;;;;12.50;86.83;100723.53;4995792;28;20027;-47
2023/06/05 08:46:18;;;;;;;45.10;12.45;;;;;;;12.40;87.19;100722.16;4995410;28;20038;-50
2023/06/05 08:48:46;;;;;;;42.08;11.07;;;;;;;12.52;86.83;100726.81;4995769;28;20127;-51
2023/06/05 08:51:14;;;;;;;35.83;10.95;;;;;;;12.59;86.44;100723.00;4995286;28;20033;-51
2023/06/05 08:53:44;;;;;;;42.17;12.07;;;;;;;12.62;86.74;100727.13;4995647;28;20030;-48
2023/06/05 08:56:11;;;;;;;43.70;12.23;;;;;;;12.72;86.29;100727.44;4995111;28;20038;-51
2023/06/05 08:58:37;;;;;;;49.63;11.75;;;;;;;12.67;86.77;100725.41;4995051;28;20022;-50
2023/06/05 09:01:04;;;;;;;42.88;12.25;;;;;;;12.54;87.98;100719.34;4995416;28;20092;-49
2023/06/05 09:03:33;;;;;;;48.58;12.05;;;;;;;12.62;87.13;100717.19;4995011;28;20036;-48
2023/06/05 09:06:00;;;;;;;36.25;10.32;;;;;;;12.62;87.24;100714.50;4995053;28;20045;-48
2023/06/05 09:08:32;;;;;;;35.58;10.18;;;;;;;12.63;86.74;100734.13;4994847;28;20026;-50
2023/06/05 09:11:23;;;;;;;36.65;10.00;;;;;;;12.65;86.99;100730.16;4994804;28;20033;-50
2023/06/05 09:13:50;;;;;;;37.70;9.65;;;;;;;12.64;86.80;100722.34;4994758;28;20030;-51
2023/06/05 09:16:20;;;;;;;36.25;10.25;;;;;;;12.70;86.33;100718.75;4994930;28;20030;-48
2023/06/05 09:18:57;;;;;;;42.08;10.93;;;;;;;12.74;86.09;100716.47;4994768;28;20037;-50
2023/06/05 09:21:30;;;;;;;38.35;11.00;;;;;;;12.76;85.56;100717.88;4994564;28;20356;-51
2023/06/05 09:24:16;;;;;;;38.00;10.05;;;;;;;12.68;85.99;100728.91;4994622;28;20026;-51
2023/06/05 09:26:47;;;;;;;48.90;10.88;;;;;;;12.67;86.34;100729.97;4994448;28;20127;-49
2023/06/05 09:29:13;;;;;;;37.78;10.60;;;;;;;12.61;86.77;100729.00;4994545;28;20057;-51
2023/06/05 09:31:42;;;;;;;36.28;10.55;;;;;;;12.61;87.03;100726.31;4994335;28;20023;-48
2023/06/05 09:34:08;;;;;;;48.28;11.43;;;;;;;12.65;86.74;100735.53;4994660;28;20382;-48
2023/06/05 09:36:45;;;;;;;34.35;10.07;;;;;;;12.62;86.53;100737.84;4994487;28;20462;-51
2023/06/05 09:39:15;;;;;;;38.40;10.80;;;;;;;12.54;86.85;100740.81;4994755;28;20046;-48
2023/06/05 09:41:46;;;;;;;44.03;10.65;;;;;;;12.64;86.41;100738.44;4994280;28;20058;-52
2023/06/05 09:44:13;;;;;;;45.88;11.63;;;;;;;12.65;86.31;100737.41;4994133;28;20037;-51
2023/06/05 09:46:51;;;;;;;33.22;10.38;;;;;;;12.66;86.09;100736.38;4994498;28;20402;-49
2023/06/05 09:49:18;;;;;;;37.85;10.95;;;;;;;12.52;86.85;100726.81;4994542;28;20027;-48
2023/06/05 09:51:45;;;;;;;37.85;11.30;;;;;;;12.56;86.68;100728.00;4994243;28;20022;-49
2023/06/05 09:54:13;;;;;;;34.78;10.80;;;;;;;12.58;86.95;100717.84;4994058;28;20041;-49
2023/06/05 09:56:51;;;;;;;41.55;11.13;;;;;;;12.59;86.48;100725.69;4994070;28;20034;-47
2023/06/05 09:59:21;;;;;;;40.92;11.57;;;;;;;12.52;86.37;100726.81;4994088;28;20025;-48
2023/06/05 10:01:50;;;;;;;39.97;11.00;;;;;;;12.59;86.12;100730.22;4994165;28;20023;-49
2023/06/05 10:04:20;;;;;;;45.60;12.25;;;;;;;12.68;85.68;100726.22;4994654;28;20031;-51
2023/06/05 10:06:48;;;;;;;41.25;11.20;;;;;;;12.54;86.27;100722.03;4993863;28;20109;-50
2023/06/05 10:09:15;;;;;;;39.72;11.23;;;;;;;12.65;86.09;100715.91;4993784;28;20022;-51
2023/06/05 10:11:42;;;;;;;32.28;9.73;;;;;;;12.65;85.57;100713.22;4993880;28;20058;-50
2023/06/05 10:14:10;;;;;;;40.05;11.13;;;;;;;12.52;85.77;100714.19;4993862;28;20080;-51
2023/06/05 10:16:37;;;;;;;43.67;10.90;;;;;;;12.59;85.85;100722.19;4993690;28;20110;-50
2023/06/05 10:19:04;;;;;;;33.05;10.23;;;;;;;12.68;85.79;100720.84;4993659;28;20034;-50
2023/06/05 10:21:32;;;;;;;33.88;8.95;;;;;;;12.73;85.35;100717.50;4992395;28;20029;-50
2023/06/05 10:24:12;;;;;;;36.20;10.05;;;;;;;12.77;85.36;100716.00;4993671;28;20391;-48
2023/06/05 10:26:38;;;;;;;30.33;9.48;;;;;;;12.75;84.96;100718.91;4993781;28;20103;-48
2023/06/05 10:29:55;;;;;;;32.42;8.85;;;;;;;12.46;86.43;100708.91;4993545;28;20141;-50
2023/06/05 10:32:21;;;;;;;37.78;9.77;;;;;;;12.57;85.93;100708.97;4981907;28;20042;-51
2023/06/05 10:35:05;;;;;;;36.95;9.73;;;;;;;12.58;85.84;100709.81;4994121;28;20026;-49
2023/06/05 10:37:43;;;;;;;32.80;10.75;;;;;;;12.52;86.14;100711.50;4993303;28;20491;-50
2023/06/05 10:40:10;;;;;;;38.70;9.35;;;;;;;12.47;86.31;100707.84;4993880;28;20030;-47
2023/06/05 10:42:37;;;;;;;28.20;9.05;;;;;;;12.51;86.53;100706.38;4993316;28;20022;-49
2023/06/05 10:45:04;;;;;;;32.08;9.93;;;;;;;12.45;86.21;100705.41;4993320;28;20483;-51
2023/06/05 10:47:33;;;;;;;38.13;9.18;;;;;;;12.46;86.43;100706.22;4993880;28;20077;-50
2023/06/05 10:50:19;;;;;;;35.92;8.88;;;;;;;12.42;86.79;100706.66;4993197;28;20518;-51
2023/06/05 10:52:49;;;;;;;36.60;10.05;;;;;;;12.32;87.35;100710.88;4993116;28;20101;-51
2023/06/05 10:55:17;;;;;;;32.30;9.05;;;;;;;12.35;87.58;100707.75;4993277;28;20125;-50
2023/06/05 10:58:01;;;;;;;25.73;8.05;;;;;;;12.51;87.50;100717.09;4996981;28;20069;-49
2023/06/05 11:00:28;;;;;;;29.90;8.88;;;;;;;12.48;87.26;100710.31;4997186;28;20117;-48
2023/06/05 11:02:54;;;;;;;29.60;8.40;;;;;;;12.55;86.98;100721.00;4997266;28;20027;-51
2023/06/05 11:05:21;;;;;;;34.50;8.10;;;;;;;12.58;86.66;100720.53;4997203;28;20356;-51
2023/06/05 11:07:48;;;;;;;22.13;8.15;;;;;;;12.61;86.05;100726.31;4997418;28;20038;-48
2023/06/05 11:10:22;;;;;;;26.60;7.70;;;;;;;12.59;86.42;100722.19;4997182;28;20054;-51
2023/06/05 11:12:51;;;;;;;29.83;7.65;;;;;;;12.49;86.88;100732.59;4997159;28;20104;-51
2023/06/05 11:15:36;;;;;;;23.73;7.55;;;;;;;12.47;87.41;100729.31;4996921;28;20041;-50
2023/06/05 11:18:28;;;;;;;31.33;8.27;;;;;;;12.53;86.70;100736.50;4996827;28;20058;-50